KSAD/SAD METAR and TAF weather

Enter ICAO airport designator
Station Type Date Time Source
KSAD METAR 2020/07/02 20:51 UTC NOAA

KSAD 022051Z AUTO 26004KT 10SM CLR 33/07 A2999 RMK AO2 SLP095 T03280072 58014


Station Type Date Time Source
KSAD Decoded METAR 2020/07/02 20:51 UTC NOAA

SAFFORD MUNICIPAL AIRPORT, AZ, United States (KSAD) 32-51N 109-38W 962M
Jul 02, 2020 - 04:51 PM EDT / 2020.07.02 2051 UTC
Wind: from the W (260 degrees) at 5 MPH (4 KT):0
Visibility: 10 mile(s):0
Sky conditions: clear
Temperature: 91.0 F (32.8 C)
Dew Point: 45.0 F (7.2 C)
Relative Humidity: 20%
Pressure (altimeter): 29.99 in. Hg (1015 hPa)
Pressure tendency: 0.04 inches (1.4 hPa) lower than three hours ago
ob: KSAD 022051Z AUTO 26004KT 10SM CLR 33/07 A2999 RMK AO2 SLP095 T03280072 58014
cycle: 21

Station Type Date Time Source
KSAD TAF UTC NOAA

Error!

Example: see airport list